createdAt,value
2022-09-15T00:02:03.322Z,98090.00
2022-09-15T00:05:05.550Z,98083.78
2022-09-15T00:08:07.439Z,98088.38
2022-09-15T00:11:18.936Z,98081.13
2022-09-15T00:14:20.908Z,98083.56
2022-09-15T00:17:22.878Z,98088.97
2022-09-15T00:20:24.604Z,98097.84
2022-09-15T00:23:26.446Z,98107.06
2022-09-15T00:26:29.831Z,98100.28
2022-09-15T00:29:36.040Z,98102.94
2022-09-15T00:32:37.870Z,98106.69
2022-09-15T00:35:41.164Z,98093.44
2022-09-15T00:38:43.426Z,98091.75
2022-09-15T00:41:45.126Z,98099.03
2022-09-15T00:44:51.570Z,98093.88
2022-09-15T00:47:53.687Z,98107.38
2022-09-15T00:50:58.337Z,98108.94
2022-09-15T00:54:03.325Z,98121.03
2022-09-15T00:57:22.205Z,98113.19
2022-09-15T01:00:27.625Z,98112.38
2022-09-15T01:03:33.142Z,98114.00
2022-09-15T01:06:47.396Z,98099.72
2022-09-15T01:10:00.725Z,98092.94
2022-09-15T01:13:05.677Z,98098.06
2022-09-15T01:16:17.738Z,98103.66
2022-09-15T01:20:00.103Z,98104.41
2022-09-15T01:23:20.531Z,98109.41
2022-09-15T01:27:24.022Z,98110.28
2022-09-15T01:30:35.718Z,98100.38
2022-09-15T01:33:49.417Z,98099.09
2022-09-15T01:36:57.441Z,98096.31
2022-09-15T01:40:01.907Z,98098.19
2022-09-15T01:43:06.566Z,98078.78
2022-09-15T01:46:09.430Z,98073.72
2022-09-15T01:49:15.718Z,98082.91
2022-09-15T01:52:21.020Z,98082.81
2022-09-15T01:55:29.662Z,98079.06
2022-09-15T01:58:33.012Z,98075.88
2022-09-15T02:01:49.722Z,98063.41
2022-09-15T02:05:06.523Z,98065.25
2022-09-15T02:08:31.750Z,98062.53
2022-09-15T02:11:36.689Z,98065.50
2022-09-15T02:14:56.321Z,98072.97
2022-09-15T02:17:59.221Z,98057.06
2022-09-15T02:21:10.739Z,98070.75
2022-09-15T02:24:19.696Z,98065.91
2022-09-15T02:27:25.143Z,98064.22
2022-09-15T02:30:29.969Z,98064.06
2022-09-15T02:33:44.363Z,98072.97
2022-09-15T02:36:47.627Z,98072.06
2022-09-15T02:40:00.220Z,98059.97
2022-09-15T02:43:03.573Z,98063.97
2022-09-15T02:46:05.449Z,98062.31
2022-09-15T02:49:07.729Z,98063.66
2022-09-15T02:52:09.482Z,98054.31
2022-09-15T02:55:11.289Z,98058.19
2022-09-15T02:58:13.021Z,98059.00
2022-09-15T03:01:15.939Z,98073.44
2022-09-15T03:04:17.971Z,98072.00
2022-09-15T03:07:20.223Z,98058.75
2022-09-15T03:10:23.907Z,98046.06
2022-09-15T03:13:25.583Z,98040.13
2022-09-15T03:16:29.038Z,98039.06
2022-09-15T03:19:31.279Z,98041.38
2022-09-15T03:22:33.399Z,98042.34
2022-09-15T03:25:35.360Z,98039.06
2022-09-15T03:28:38.363Z,98052.53
2022-09-15T03:31:40.135Z,98065.22
2022-09-15T03:34:42.248Z,98064.84
2022-09-15T03:37:44.073Z,98072.94
2022-09-15T03:41:00.489Z,98074.00
2022-09-15T03:44:02.437Z,98073.75
2022-09-15T03:47:04.307Z,98065.44
2022-09-15T03:50:06.880Z,98062.25
2022-09-15T03:53:08.601Z,98066.72
2022-09-15T03:56:26.395Z,98052.78
2022-09-15T03:59:28.097Z,98057.34
2022-09-15T04:02:29.844Z,98042.34
2022-09-15T04:05:31.551Z,98050.66
2022-09-15T04:08:33.303Z,98058.91
2022-09-15T04:11:35.065Z,98066.50
2022-09-15T04:14:36.775Z,98062.75
2022-09-15T04:17:38.469Z,98066.59
2022-09-15T04:20:40.591Z,98074.38
2022-09-15T04:23:43.461Z,98075.50
2022-09-15T04:26:45.215Z,98076.88
2022-09-15T04:29:51.285Z,98051.59
2022-09-15T04:32:53.973Z,98048.09
2022-09-15T04:36:08.131Z,98059.06
2022-09-15T04:39:09.936Z,98048.34
2022-09-15T04:42:11.858Z,98061.59
2022-09-15T04:45:13.629Z,98057.00
2022-09-15T04:48:15.385Z,98053.56
2022-09-15T04:51:20.652Z,98055.44
2022-09-15T04:54:22.461Z,98052.50
2022-09-15T04:57:25.391Z,98054.16
2022-09-15T05:00:27.109Z,98040.41
2022-09-15T05:03:29.054Z,98046.34
2022-09-15T05:06:30.973Z,98050.78
2022-09-15T05:09:32.765Z,98043.97
2022-09-15T05:12:34.690Z,98081.75
2022-09-15T05:15:36.561Z,98076.22
2022-09-15T05:18:40.207Z,98100.16
2022-09-15T05:21:41.975Z,98089.81
2022-09-15T05:24:43.698Z,98102.88
2022-09-15T05:27:45.475Z,98105.94
2022-09-15T05:30:47.313Z,98087.09
2022-09-15T05:33:50.768Z,98079.63
2022-09-15T05:36:52.450Z,98098.19
2022-09-15T05:39:54.276Z,98082.66
2022-09-15T05:42:56.004Z,98080.31
2022-09-15T05:45:57.739Z,98078.78
2022-09-15T05:48:59.587Z,98082.19
2022-09-15T05:52:01.469Z,98090.59
2022-09-15T05:55:03.601Z,98091.84
2022-09-15T05:58:05.319Z,98084.03
2022-09-15T06:01:13.348Z,98094.53
2022-09-15T06:04:15.073Z,98093.19
2022-09-15T06:07:16.776Z,98092.44
2022-09-15T06:10:18.544Z,98090.25
2022-09-15T06:13:20.354Z,98094.59
2022-09-15T06:16:24.014Z,98098.38
2022-09-15T06:19:25.815Z,98114.75
2022-09-15T06:22:28.417Z,98118.81
2022-09-15T06:25:30.176Z,98136.91
2022-09-15T06:28:32.364Z,98147.34
2022-09-15T06:31:34.748Z,98146.72
2022-09-15T06:34:39.293Z,98146.34
2022-09-15T06:37:41.016Z,98154.19
2022-09-15T06:40:42.869Z,98160.19
2022-09-15T06:43:45.357Z,98161.00
2022-09-15T06:46:47.756Z,98154.72
2022-09-15T06:49:49.562Z,98157.31
2022-09-15T06:52:51.273Z,98150.66
2022-09-15T06:55:53.045Z,98155.69
2022-09-15T06:58:56.162Z,98150.13
2022-09-15T07:02:02.704Z,98151.81
2022-09-15T07:05:06.780Z,98138.09
2022-09-15T07:08:08.515Z,98140.06
2022-09-15T07:11:10.761Z,98145.81
2022-09-15T07:14:12.654Z,98145.88
2022-09-15T07:17:14.350Z,98150.25
2022-09-15T07:20:16.240Z,98157.81
2022-09-15T07:23:19.315Z,98159.13
2022-09-15T07:26:23.893Z,98157.06
2022-09-15T07:29:25.775Z,98140.59
2022-09-15T07:32:27.535Z,98145.63
2022-09-15T07:35:29.290Z,98157.56
2022-09-15T07:38:31.178Z,98155.81
2022-09-15T07:41:33.376Z,98160.69
2022-09-15T07:44:35.100Z,98162.25
2022-09-15T07:47:37.423Z,98168.63
2022-09-15T07:50:39.186Z,98171.13
2022-09-15T07:53:41.510Z,98162.88
2022-09-15T07:56:43.594Z,98151.94
2022-09-15T07:59:45.272Z,98148.50
2022-09-15T08:02:47.279Z,98146.78
2022-09-15T08:05:48.998Z,98157.69
2022-09-15T08:08:55.052Z,98161.31
2022-09-15T08:11:58.196Z,98160.81
2022-09-15T08:14:59.952Z,98148.69
2022-09-15T08:18:02.412Z,98159.81
2022-09-15T08:21:09.518Z,98166.81
2022-09-15T08:24:11.243Z,98172.28
2022-09-15T08:27:12.940Z,98158.63
2022-09-15T08:30:14.686Z,98152.50
2022-09-15T08:33:16.960Z,98131.00
2022-09-15T08:36:19.153Z,98124.06
2022-09-15T08:39:21.042Z,98113.22
2022-09-15T08:42:29.269Z,98112.69
2022-09-15T08:45:44.542Z,98103.16
2022-09-15T08:48:53.028Z,98118.34
2022-09-15T08:51:58.196Z,98112.00
2022-09-15T08:55:13.224Z,98088.78
2022-09-15T08:58:19.315Z,98072.81
2022-09-15T09:01:32.766Z,98074.28
2022-09-15T09:04:50.614Z,98065.63
2022-09-15T09:08:46.419Z,98067.06
2022-09-15T09:12:03.299Z,98063.16
2022-09-15T09:15:20.040Z,98046.59
2022-09-15T09:18:52.601Z,98042.66
2022-09-15T09:22:01.222Z,98035.16
2022-09-15T09:25:21.178Z,98024.13
2022-09-15T09:28:32.472Z,98038.91
2022-09-15T09:31:36.476Z,98039.66
2022-09-15T09:34:45.648Z,98027.31
2022-09-15T09:37:47.879Z,98019.53
2022-09-15T09:40:49.888Z,98015.69
2022-09-15T09:43:54.492Z,98011.53
2022-09-15T09:46:56.162Z,98003.56
2022-09-15T09:49:58.221Z,97983.81
2022-09-15T09:53:00.188Z,97986.69
2022-09-15T09:56:18.572Z,98005.13
2022-09-15T09:59:50.582Z,98000.78
2022-09-15T10:02:52.673Z,98012.41
2022-09-15T10:06:24.661Z,98018.72
2022-09-15T10:09:31.174Z,98014.75
2022-09-15T10:12:40.925Z,98026.84
2022-09-15T10:15:43.427Z,98019.03
2022-09-15T10:18:49.884Z,98019.22
2022-09-15T10:21:54.610Z,98008.19
2022-09-15T10:24:57.363Z,98015.63
2022-09-15T10:28:13.234Z,98010.47
2022-09-15T10:31:31.575Z,98001.03
2022-09-15T10:34:33.348Z,97998.91
2022-09-15T10:37:53.638Z,98008.63
2022-09-15T10:41:13.849Z,98006.59
2022-09-15T10:44:18.158Z,97997.81
2022-09-15T10:47:43.844Z,97987.44
2022-09-15T10:51:10.223Z,97989.03
2022-09-15T10:54:31.774Z,97984.75
2022-09-15T10:57:42.307Z,97980.16
2022-09-15T11:01:23.062Z,97964.91
2022-09-15T11:04:30.929Z,97954.88
2022-09-15T11:08:01.892Z,97944.97
2022-09-15T11:11:32.212Z,97945.13
2022-09-15T11:14:44.529Z,97935.47
2022-09-15T11:18:14.151Z,97939.75
2022-09-15T11:21:21.760Z,97948.38
2022-09-15T11:24:29.845Z,97951.06
2022-09-15T11:27:41.034Z,97953.47
2022-09-15T11:31:01.079Z,97955.28
2022-09-15T11:34:33.203Z,97960.03
2022-09-15T11:37:43.401Z,97953.69
2022-09-15T11:41:11.541Z,97951.59
2022-09-15T11:44:22.940Z,97958.91
2022-09-15T11:47:38.703Z,97960.25
2022-09-15T11:50:45.739Z,97960.25
2022-09-15T11:53:55.758Z,97970.16
2022-09-15T11:56:59.620Z,97976.28
2022-09-15T12:00:10.608Z,97982.22
2022-09-15T12:03:37.841Z,97992.69
2022-09-15T12:10:33.927Z,97999.06
2022-09-15T12:13:36.814Z,98003.88
2022-09-15T12:16:38.811Z,98013.34
2022-09-15T12:20:00.290Z,98006.97
2022-09-15T12:23:21.032Z,98001.81
2022-09-15T12:26:25.178Z,97984.75
2022-09-15T12:29:26.924Z,97964.38
2022-09-15T12:32:33.245Z,97959.50
2022-09-15T12:35:35.028Z,97952.66
2022-09-15T12:38:36.721Z,97939.66
2022-09-15T12:41:47.502Z,97929.59
2022-09-15T12:45:13.285Z,97924.25
2022-09-15T12:48:21.452Z,97926.50
2022-09-15T12:51:28.250Z,97926.09
2022-09-15T12:54:33.141Z,97908.66
2022-09-15T12:57:37.034Z,97900.66
2022-09-15T13:00:54.844Z,97893.59
2022-09-15T13:04:03.392Z,97889.88
2022-09-15T13:07:18.469Z,97887.31
2022-09-15T13:10:33.308Z,97873.34
2022-09-15T13:13:39.971Z,97858.94
2022-09-15T13:16:43.772Z,97866.75
2022-09-15T13:19:52.847Z,97865.50
2022-09-15T13:22:58.721Z,97852.41
2022-09-15T13:26:01.851Z,97852.59
2022-09-15T13:29:06.367Z,97847.56
2022-09-15T13:32:33.319Z,97866.00
2022-09-15T13:36:00.440Z,97860.09
2022-09-15T13:39:23.280Z,97873.84
2022-09-15T13:42:29.722Z,97862.22
2022-09-15T13:46:13.696Z,97848.44
2022-09-15T13:49:24.564Z,97841.59
2022-09-15T13:52:38.468Z,97858.47
2022-09-15T13:55:43.279Z,97861.09
2022-09-15T13:59:07.281Z,97852.28
2022-09-15T14:02:08.955Z,97847.00
2022-09-15T14:05:12.152Z,97848.06
2022-09-15T14:08:24.820Z,97841.91
2022-09-15T14:11:32.383Z,97848.69
2022-09-15T14:14:42.524Z,97843.84
2022-09-15T14:17:45.227Z,97854.03
2022-09-15T14:20:58.418Z,97863.91
2022-09-15T14:24:17.391Z,97854.94
2022-09-15T14:27:22.509Z,97860.09
2022-09-15T14:30:29.594Z,97864.56
2022-09-15T14:33:40.910Z,97873.84
2022-09-15T14:36:43.176Z,97858.81
2022-09-15T14:39:54.744Z,97853.25
2022-09-15T14:42:57.182Z,97863.59
2022-09-15T14:46:38.026Z,97869.38
2022-09-15T14:49:39.706Z,97876.44
2022-09-15T14:52:46.552Z,97872.56
2022-09-15T14:56:08.280Z,97882.91
2022-09-15T14:59:26.033Z,97888.13
2022-09-15T15:02:52.555Z,97871.28
2022-09-15T15:06:27.669Z,97869.16
2022-09-15T15:09:41.445Z,97868.81
2022-09-15T15:12:48.527Z,97848.59
2022-09-15T15:15:50.808Z,97871.63
2022-09-15T15:18:53.466Z,97877.25
2022-09-15T15:22:07.379Z,97871.69
2022-09-15T15:25:24.601Z,97870.66
2022-09-15T15:28:30.977Z,97872.75
2022-09-15T15:31:32.849Z,97886.50
2022-09-15T15:34:34.782Z,97898.94
2022-09-15T15:37:36.975Z,97914.00
2022-09-15T15:40:40.807Z,97947.31
2022-09-15T15:43:55.221Z,97966.72
2022-09-15T15:47:02.945Z,97972.31
2022-09-15T15:50:19.106Z,97952.28
2022-09-15T15:53:20.757Z,97938.00
2022-09-15T15:56:26.090Z,97925.56
2022-09-15T15:59:28.227Z,97927.16
2022-09-15T16:02:30.543Z,97933.13
2022-09-15T16:05:33.853Z,97917.41
2022-09-15T16:08:39.837Z,97920.28
2022-09-15T16:11:43.095Z,97933.59
2022-09-15T16:14:44.978Z,97932.75
2022-09-15T16:17:48.583Z,97940.91
2022-09-15T16:20:50.529Z,97944.75
2022-09-15T16:23:52.336Z,97962.69
2022-09-15T16:26:59.270Z,97962.44
2022-09-15T16:30:03.774Z,97973.53
2022-09-15T16:33:05.615Z,97976.25
2022-09-15T16:36:12.905Z,97970.53
2022-09-15T16:39:14.647Z,97973.25
2022-09-15T16:42:16.287Z,97980.00
2022-09-15T16:45:36.514Z,97989.50
2022-09-15T16:48:43.289Z,97996.00
2022-09-15T16:51:45.154Z,97992.97
2022-09-15T16:54:48.200Z,97995.66
2022-09-15T16:57:50.498Z,98003.47
2022-09-15T17:00:53.720Z,98007.81
2022-09-15T17:03:56.032Z,98011.00
2022-09-15T17:06:58.838Z,98017.19
2022-09-15T17:10:02.986Z,98015.03
2022-09-15T17:13:05.360Z,98020.13
2022-09-15T17:16:08.261Z,98022.22
2022-09-15T17:19:10.171Z,98013.00
2022-09-15T17:22:12.069Z,98006.75
2022-09-15T17:25:42.594Z,98022.66
2022-09-15T17:28:44.499Z,98024.22
2022-09-15T17:31:46.675Z,98020.06
2022-09-15T17:34:48.340Z,98029.44
2022-09-15T17:37:51.122Z,98031.53
2022-09-15T17:40:55.234Z,98036.94
2022-09-15T17:43:58.063Z,98031.50
2022-09-15T17:47:00.751Z,98040.69
2022-09-15T17:50:03.604Z,98017.13
2022-09-15T17:53:21.440Z,98004.91
2022-09-15T17:56:23.307Z,98003.28
2022-09-15T17:59:25.087Z,98005.97
2022-09-15T18:02:27.294Z,97996.19
2022-09-15T18:05:31.378Z,97979.97
2022-09-15T18:08:34.127Z,97982.09
2022-09-15T18:11:36.114Z,97965.53
2022-09-15T18:14:38.331Z,97972.47
2022-09-15T18:17:40.226Z,97978.28
2022-09-15T18:20:42.439Z,97973.06
2022-09-15T18:23:45.124Z,97985.41
2022-09-15T18:26:46.899Z,97993.94
2022-09-15T18:29:48.644Z,97988.16
2022-09-15T18:32:51.169Z,97990.25
2022-09-15T18:35:55.802Z,98000.25
2022-09-15T18:38:57.906Z,98004.00
2022-09-15T18:41:59.662Z,97984.06
2022-09-15T18:45:01.902Z,97979.97
2022-09-15T18:48:06.263Z,97985.56
2022-09-15T18:51:12.003Z,98004.66
2022-09-15T18:54:18.046Z,98014.56
2022-09-15T18:57:20.050Z,98018.56
2022-09-15T19:00:24.251Z,98016.94
2022-09-15T19:03:26.145Z,98024.78
2022-09-15T19:06:27.875Z,98025.34
2022-09-15T19:09:29.883Z,98047.28
2022-09-15T19:12:31.709Z,98044.53
2022-09-15T19:15:34.558Z,98045.06
2022-09-15T19:18:36.930Z,98042.53
2022-09-15T19:21:38.719Z,98045.16
2022-09-15T19:24:40.812Z,98053.81
2022-09-15T19:27:43.101Z,98062.25
2022-09-15T19:30:44.898Z,98065.25
2022-09-15T19:33:46.809Z,98067.38
2022-09-15T19:36:48.638Z,98072.28
2022-09-15T19:39:50.697Z,98070.41
2022-09-15T19:42:52.622Z,98076.63
2022-09-15T19:45:54.372Z,98093.34
2022-09-15T19:48:56.333Z,98093.94
2022-09-15T19:51:58.421Z,98102.03
2022-09-15T19:55:00.287Z,98096.06
2022-09-15T19:58:02.077Z,98094.44
2022-09-15T20:01:03.906Z,98090.59
2022-09-15T20:04:06.892Z,98101.06
2022-09-15T20:07:08.672Z,98104.19
2022-09-15T20:10:10.492Z,98113.00
2022-09-15T20:13:12.360Z,98111.88
2022-09-15T20:16:19.608Z,98105.41
2022-09-15T20:19:21.578Z,98103.78
2022-09-15T20:22:23.720Z,98125.34
2022-09-15T20:25:25.556Z,98121.38
2022-09-15T20:28:27.779Z,98116.78
2022-09-15T20:31:32.889Z,98122.75
2022-09-15T20:34:34.637Z,98121.38
2022-09-15T20:37:37.636Z,98120.56
2022-09-15T20:40:39.649Z,98122.91
2022-09-15T20:43:42.511Z,98129.00
2022-09-15T20:46:44.342Z,98135.94
2022-09-15T20:49:46.214Z,98147.72
2022-09-15T20:52:48.928Z,98153.38
2022-09-15T20:55:50.875Z,98154.66
2022-09-15T20:58:58.522Z,98150.41
2022-09-15T21:02:00.312Z,98159.06
2022-09-15T21:05:02.084Z,98155.34
2022-09-15T21:08:03.826Z,98161.53
2022-09-15T21:11:08.945Z,98161.75
2022-09-15T21:14:14.289Z,98159.31
2022-09-15T21:17:16.544Z,98166.25
2022-09-15T21:20:18.299Z,98174.59
2022-09-15T21:23:20.020Z,98168.41
2022-09-15T21:26:24.030Z,98166.75
2022-09-15T21:29:27.656Z,98178.84
2022-09-15T21:32:29.982Z,98182.84
2022-09-15T21:35:32.615Z,98190.13
2022-09-15T21:38:35.035Z,98193.38
2022-09-15T21:41:36.853Z,98196.41
2022-09-15T21:44:38.901Z,98202.03
2022-09-15T21:47:40.631Z,98207.13
2022-09-15T21:50:52.838Z,98213.78
2022-09-15T21:53:56.935Z,98227.06
2022-09-15T21:56:58.726Z,98228.59
2022-09-15T22:00:00.395Z,98238.69
2022-09-15T22:03:02.206Z,98257.41
2022-09-15T22:06:04.095Z,98271.59
2022-09-15T22:09:15.277Z,98259.78
2022-09-15T22:12:17.084Z,98267.44
2022-09-15T22:15:18.823Z,98267.06
2022-09-15T22:18:20.848Z,98288.16
2022-09-15T22:21:25.333Z,98286.16
2022-09-15T22:24:27.005Z,98294.81
2022-09-15T22:27:28.768Z,98292.63
2022-09-15T22:30:30.504Z,98296.00
2022-09-15T22:33:32.852Z,98298.09
2022-09-15T22:36:35.235Z,98315.19
2022-09-15T22:39:58.115Z,98329.44
2022-09-15T22:42:58.954Z,98335.53
2022-09-15T22:46:00.863Z,98325.47
2022-09-15T22:49:02.866Z,98322.31
2022-09-15T22:52:04.845Z,98326.94
2022-09-15T22:55:06.872Z,98327.78
2022-09-15T22:58:08.674Z,98328.00
2022-09-15T23:01:14.317Z,98333.25
2022-09-15T23:04:16.078Z,98336.16
2022-09-15T23:07:17.861Z,98344.00
2022-09-15T23:10:19.531Z,98345.75
2022-09-15T23:13:21.265Z,98345.63
2022-09-15T23:16:24.444Z,98368.06
2022-09-15T23:19:26.517Z,98377.66
2022-09-15T23:22:28.254Z,98374.78
2022-09-15T23:25:29.940Z,98374.78
2022-09-15T23:28:32.330Z,98360.72
2022-09-15T23:31:34.102Z,98370.22
2022-09-15T23:34:35.921Z,98374.97
2022-09-15T23:37:37.856Z,98376.63
2022-09-15T23:40:42.610Z,98377.19
2022-09-15T23:43:44.584Z,98368.66
2022-09-15T23:46:46.461Z,98362.94
2022-09-15T23:49:48.401Z,98358.00
2022-09-15T23:52:50.075Z,98361.34
2022-09-15T23:55:52.440Z,98363.44
2022-09-15T23:58:54.423Z,98363.00
